Time;durP1;ratioP1;P1;durP2;ratioP2;P2;SDS_P1;SDS_P2;PMS_P1;PMS_P2;Temp;Humidity;BMP_temperature;BMP_pressure;BME280_temperature;BME280_humidity;BME280_pressure;Samples;Min_cycle;Max_cycle;Signal;HPM_P1;HPM_P2
2022/04/03 01:07:44;261541.00;0.87;451.80;0.00;0.00;0.62;;;;;4.00;1.00;;;;;;2270770;61;1387;-88
2022/04/03 01:15:49;263007.00;0.88;454.32;0.00;0.00;0.62;;;;;3.40;1.00;;;;;;2504542;40;3768;31
2022/04/03 01:43:27;638688.00;2.13;1101.07;33919.00;0.11;59.37;;;;;3.30;1.00;;;;;;2274643;61;977;-89
2022/04/03 03:18:00;279456.00;0.93;482.60;0.00;0.00;0.62;;;;;4.10;1.00;;;;;;2205227;40;3364;-88
2022/04/03 03:30:18;277420.00;0.92;479.10;0.00;0.00;0.62;;;;;4.40;1.00;;;;;;2270431;61;1305;-88
2022/04/03 03:32:45;15154.00;0.05;26.88;0.00;0.00;0.62;;;;;4.70;1.00;;;;;;2268259;61;1127;-85
2022/04/03 04:05:12;329516.00;1.10;568.65;0.00;0.00;0.62;;;;;5.60;1.00;;;;;;2262464;61;1044;-90
2022/04/03 04:32:24;406006.00;1.35;700.13;36073.00;0.12;63.09;;;;;3.60;1.00;;;;;;2270618;61;1415;-89
2022/04/03 06:01:58;174563.00;0.58;302.13;0.00;0.00;0.62;;;;;3.70;1.00;;;;;;1408532;40;3211;-87
2022/04/03 06:14:21;383402.00;1.28;661.27;0.00;0.00;0.62;;;;;3.50;1.00;;;;;;2270209;61;1123;-89
2022/04/03 06:24:19;128660.00;0.43;223.02;0.00;0.00;0.62;;;;;4.40;1.00;;;;;;2457097;40;3507;-84
2022/04/03 06:34:11;313292.00;1.04;540.77;0.00;0.00;0.62;;;;;3.70;1.00;;;;;;2273718;61;1373;-86
2022/04/03 06:36:39;223123.00;0.74;385.72;0.00;0.00;0.62;;;;;3.40;1.00;;;;;;2272054;61;1582;-87
2022/04/03 06:39:06;360480.00;1.20;621.87;0.00;0.00;0.62;;;;;2.80;1.00;;;;;;2272295;61;1161;-86
2022/04/03 06:46:32;172002.00;0.57;297.71;0.00;0.00;0.62;;;;;3.40;1.00;;;;;;2270196;61;1377;-85
2022/04/03 06:53:56;160072.00;0.53;277.16;0.00;0.00;0.62;;;;;3.70;1.00;;;;;;2269864;61;1405;-84
2022/04/03 07:06:21;417516.00;1.39;719.92;0.00;0.00;0.62;;;;;4.20;1.00;;;;;;2273784;61;1416;-85
2022/04/03 07:11:17;292738.00;0.98;505.44;0.00;0.00;0.62;;;;;4.10;1.00;;;;;;2266316;61;1407;-87
2022/04/03 07:21:15;375391.00;1.25;647.50;0.00;0.00;0.62;;;;;4.30;1.00;;;;;;2270104;61;1964;-85
2022/04/03 07:26:11;535511.00;1.79;922.99;89999.00;0.30;156.31;;;;;3.80;1.00;;;;;;2292702;40;3529;-88
2022/04/03 07:28:38;575322.00;1.92;991.63;127028.00;0.42;220.20;;;;;4.00;1.00;;;;;;2272239;61;1240;-88
2022/04/03 07:33:34;397100.00;1.32;684.82;101828.00;0.34;176.73;;;;;4.20;1.00;;;;;;2274608;61;1422;-86
2022/04/03 07:36:02;324163.00;1.08;559.45;95678.00;0.32;166.11;;;;;4.30;1.00;;;;;;2272414;61;1057;-89
2022/04/03 07:40:57;335749.00;1.12;579.37;94214.00;0.31;163.58;;;;;4.50;1.00;;;;;;2270172;61;1954;-88
2022/04/03 07:43:26;365812.00;1.22;631.04;101617.00;0.34;176.36;;;;;4.60;1.00;;;;;;2268208;61;1032;-86
2022/04/03 07:45:54;228819.00;0.76;395.52;90554.00;0.30;157.26;;;;;4.80;1.00;;;;;;2268044;61;1012;-85
2022/04/03 07:48:22;352769.00;1.18;608.62;82625.00;0.28;143.57;;;;;4.90;1.00;;;;;;2268028;61;1536;-87
2022/04/03 07:50:49;250923.00;0.84;433.54;92357.00;0.31;160.38;;;;;5.20;1.00;;;;;;2268112;61;1124;-85
2022/04/03 07:53:16;24580.00;0.08;43.20;0.00;0.00;0.62;;;;;5.80;1.00;;;;;;2268191;61;1687;-86
2022/04/03 07:55:43;117424296.00;391.41;65584720.00;117162632.00;390.54;65146880.00;;;;;5.90;1.00;;;;;;2268174;61;1065;-87
2022/04/03 08:08:03;305007.00;1.02;526.53;65171.00;0.22;113.42;;;;;4.40;1.00;;;;;;2269798;61;1408;-85
2022/04/03 08:10:30;77195.00;0.26;134.19;0.00;0.00;0.62;;;;;4.20;1.00;;;;;;2267957;61;1107;-84
2022/04/03 08:12:57;85905.00;0.29;149.24;0.00;0.00;0.62;;;;;4.30;1.00;;;;;;2268035;61;1143;-85
2022/04/03 08:15:25;50579.00;0.17;88.19;0.00;0.00;0.62;;;;;4.90;1.00;;;;;;2267932;61;1543;-85
2022/04/03 08:17:52;53107.00;0.18;92.56;0.00;0.00;0.62;;;;;5.20;1.00;;;;;;2268482;61;1312;-85
2022/04/03 08:20:19;67662.00;0.23;117.72;0.00;0.00;0.62;;;;;5.30;1.00;;;;;;2268287;61;1916;-84
2022/04/03 08:22:47;130177.00;0.43;225.63;0.00;0.00;0.62;;;;;5.40;1.00;;;;;;2268339;61;1095;-83
2022/04/03 08:25:16;29868.00;0.10;52.35;0.00;0.00;0.62;;;;;5.70;1.00;;;;;;2267543;61;1061;-84
2022/04/03 08:27:49;172191.00;0.57;298.04;95968.00;0.32;166.61;;;;;6.50;1.00;;;;;;2267441;61;2215;-84
2022/04/03 08:30:19;267930.00;0.89;462.78;101278.00;0.34;175.78;;;;;7.10;1.00;;;;;;2268314;61;1183;-86
2022/04/03 08:32:47;242147.00;0.81;418.44;93751.00;0.31;162.78;;;;;7.20;1.00;;;;;;2268938;61;1184;-87
2022/04/03 08:35:15;387213.00;1.29;667.82;94410.00;0.31;163.92;;;;;6.90;1.00;;;;;;2268130;61;2182;-85
2022/04/03 08:37:43;301703.00;1.01;520.85;94076.00;0.31;163.35;;;;;6.60;1.00;;;;;;2268949;61;1269;-85
2022/04/03 08:40:11;345300.00;1.15;595.78;101077.00;0.34;175.43;;;;;6.50;1.00;;;;;;2268609;61;1923;-84
2022/04/03 08:42:41;293898.00;0.98;507.43;103370.00;0.34;179.39;;;;;6.70;1.00;;;;;;2266134;61;1088;-83
2022/04/03 08:45:11;575514.00;1.92;991.96;163444.00;0.54;282.97;;;;;6.80;1.00;;;;;;2266677;61;1147;-85
2022/04/03 08:47:44;408079.00;1.36;703.69;100762.00;0.34;174.89;;;;;7.50;1.00;;;;;;2267831;61;1410;-87
2022/04/03 08:50:12;455635.00;1.52;785.48;95232.00;0.32;165.34;;;;;7.30;1.00;;;;;;2268820;61;1554;-87
2022/04/03 08:52:40;427082.00;1.42;736.37;118502.00;0.40;205.50;;;;;6.70;1.00;;;;;;2268753;61;2348;-86
2022/04/03 08:55:08;351172.00;1.17;605.88;91684.00;0.31;159.22;;;;;6.90;1.00;;;;;;2268773;61;1157;-88
2022/04/03 08:57:34;388475.00;1.29;669.99;87618.00;0.29;152.19;;;;;7.70;1.00;;;;;;2267463;61;1436;-84
2022/04/03 09:00:05;191669.00;0.64;331.58;89825.00;0.30;156.01;;;;;7.90;1.00;;;;;;2266369;61;1928;-84
2022/04/03 09:02:32;246450.00;0.82;425.85;89113.00;0.30;154.78;;;;;7.60;1.00;;;;;;2266701;61;1124;-84
2022/04/03 09:04:59;360979.00;1.20;622.73;100489.00;0.33;174.42;;;;;7.40;1.00;;;;;;2266036;61;1065;-86
2022/04/03 09:07:26;517340.00;1.72;891.68;97689.00;0.33;169.58;;;;;8.10;1.00;;;;;;2266361;61;1432;-84
2022/04/03 09:09:58;345071.00;1.15;595.39;97714.00;0.33;169.63;;;;;8.50;1.00;;;;;;2266197;61;1104;-85
2022/04/03 09:12:26;375179.00;1.25;647.14;82298.00;0.27;143.01;;;;;8.60;1.00;;;;;;2267238;61;1561;-82
2022/04/03 09:14:55;252821.00;0.84;436.80;95267.00;0.32;165.40;;;;;7.70;1.00;;;;;;2268113;61;1691;-84
2022/04/03 09:17:36;275397.00;0.92;475.62;93906.00;0.31;163.05;;;;;6.90;1.00;;;;;;2267536;61;1476;-85
2022/04/03 09:20:06;1144922.00;3.82;1990.95;170069.00;0.57;294.39;;;;;7.00;1.00;;;;;;2268522;61;1929;-87
2022/04/03 09:22:35;1161906.00;3.87;2021.50;118767.00;0.40;205.96;;;;;6.70;1.00;;;;;;2268511;61;1105;-85
2022/04/03 09:25:03;1166795.00;3.89;2030.30;127403.00;0.42;220.85;;;;;6.60;1.00;;;;;;2268380;61;1465;-85
2022/04/03 09:27:33;1158898.00;3.86;2016.08;185328.00;0.62;320.66;;;;;6.60;1.00;;;;;;2268369;61;1680;-85
2022/04/03 09:30:05;1269706.00;4.23;2216.77;112797.00;0.38;195.66;;;;;6.20;1.00;;;;;;2268484;61;1517;-85
2022/04/03 09:32:34;1298176.00;4.33;2268.77;111000.00;0.37;192.56;;;;;5.90;1.00;;;;;;2268565;61;1097;-86
2022/04/03 09:35:01;1022080.00;3.41;1771.62;116769.00;0.39;202.51;;;;;5.30;1.00;;;;;;2268544;61;1179;-87
2022/04/03 09:37:28;1391442.00;4.64;2440.46;184431.00;0.61;319.12;;;;;4.70;1.00;;;;;;2268400;61;1631;-88
2022/04/03 09:39:56;485868.00;1.62;837.50;105004.00;0.35;182.21;;;;;4.30;1.00;;;;;;2268659;61;1468;-86
2022/04/03 09:49:58;326896.00;1.09;564.15;91015.00;0.30;158.06;;;;;4.30;1.00;;;;;;2270167;61;1433;-86
2022/04/03 09:52:43;119139.00;0.40;206.60;0.00;0.00;0.62;;;;;4.50;1.00;;;;;;2268314;61;1684;-85
2022/04/03 10:12:43;222711.00;0.74;385.01;0.00;0.00;0.62;;;;;7.50;1.00;;;;;;2269700;61;1421;-86
2022/04/03 10:15:11;870017.00;2.90;1503.52;92016.00;0.31;159.79;;;;;7.50;1.00;;;;;;2268245;61;1462;-87
2022/04/03 10:52:59;673616.00;2.25;1161.52;0.00;0.00;0.62;;;;;6.00;1.00;;;;;;2274271;61;1050;-90
2022/04/03 11:15:45;536488.00;1.79;924.67;0.00;0.00;0.62;;;;;5.70;1.00;;;;;;2466263;40;3431;31
2022/04/03 11:50:52;422097.00;1.41;727.80;0.00;0.00;0.62;;;;;5.80;1.00;;;;;;2508768;55;3559;31
2022/04/03 13:11:29;406112.00;1.35;700.31;0.00;0.00;0.62;;;;;8.80;1.00;;;;;;2270830;61;1040;-89
2022/04/03 13:14:11;485320.00;1.62;836.55;40612.00;0.14;70.95;;;;;9.10;1.00;;;;;;2269165;61;1584;-89
2022/04/03 13:19:08;276668.00;0.92;477.81;0.00;0.00;0.62;;;;;9.40;1.00;;;;;;1561032;40;3412;-88
2022/04/03 13:26:37;409016.00;1.36;705.31;14311.00;0.05;25.42;;;;;10.30;1.00;;;;;;2328191;55;3591;-87
2022/04/03 13:34:03;2416480.00;8.05;4517.52;94324.00;0.31;163.77;;;;;10.00;1.00;;;;;;2270181;61;1404;-88
2022/04/03 13:36:33;391847.00;1.31;675.79;88042.00;0.29;152.93;;;;;9.90;1.00;;;;;;2279481;56;3703;-88
2022/04/03 13:41:29;103326.00;0.34;179.31;0.00;0.00;0.62;;;;;9.50;1.00;;;;;;2270018;61;1885;-87
2022/04/03 13:43:58;81610.00;0.27;141.82;0.00;0.00;0.62;;;;;9.50;1.00;;;;;;2268470;61;1480;-88
2022/04/03 13:46:27;35830.00;0.12;62.67;0.00;0.00;0.62;;;;;9.30;1.00;;;;;;2268361;61;1410;-88
2022/04/03 13:56:26;82640.00;0.28;143.60;0.00;0.00;0.62;;;;;9.50;1.00;;;;;;2274237;61;1396;-86
2022/04/03 14:11:28;124245488.00;414.15;77703112.00;119193.00;0.40;206.69;;;;;6.80;1.00;;;;;;2270175;61;2157;-90
2022/04/03 14:56:35;1641452.00;5.47;2912.22;91776.00;0.31;159.37;;;;;9.80;1.00;;;;;;2270911;61;1306;-90
2022/04/03 15:11:37;1151534.00;3.84;2002.83;162233.00;0.54;280.89;;;;;9.90;1.00;;;;;;1330539;41;3086;-88
2022/04/03 15:16:37;365081.00;1.22;629.78;95637.00;0.32;166.04;;;;;9.80;1.00;;;;;;2270200;61;1296;-88
2022/04/03 15:19:04;227557.00;0.76;393.35;102202.00;0.34;177.37;;;;;9.40;1.00;;;;;;2268774;61;819;-90
2022/04/03 15:21:31;213969.00;0.71;369.97;116070.00;0.39;201.30;;;;;9.00;1.00;;;;;;2273200;55;3890;-90
2022/04/03 15:23:59;245536.00;0.82;424.27;103382.00;0.34;179.41;;;;;9.30;1.00;;;;;;2272638;61;1023;-87
2022/04/03 15:26:30;133516.00;0.45;231.39;0.00;0.00;0.62;;;;;9.60;1.00;;;;;;2272585;61;1609;-87
2022/04/03 15:28:59;435541.00;1.45;750.91;48751.00;0.16;85.03;;;;;9.90;1.00;;;;;;2272815;61;2249;-86
2022/04/03 15:31:26;170124.00;0.57;294.48;0.00;0.00;0.62;;;;;10.00;1.00;;;;;;2272903;61;931;-86
2022/04/03 15:33:53;331468.00;1.10;572.01;0.00;0.00;0.62;;;;;9.90;1.00;;;;;;2272877;61;1393;-88
2022/04/03 15:36:21;1422002.00;4.74;2497.19;201845.00;0.67;349.10;;;;;9.70;1.00;;;;;;2272177;61;1440;-88
2022/04/03 15:38:48;830087.00;2.77;1433.65;134345.00;0.45;232.82;;;;;10.50;1.00;;;;;;2272002;61;1019;-89
2022/04/03 15:41:16;269520.00;0.90;465.52;0.00;0.00;0.62;;;;;10.50;1.00;;;;;;2272092;61;1981;-86
2022/04/03 15:43:43;170120.00;0.57;294.47;0.00;0.00;0.62;;;;;11.00;1.00;;;;;;2272053;61;1079;-88
2022/04/03 15:46:13;354421.00;1.18;611.46;6094.00;0.02;11.18;;;;;11.00;1.00;;;;;;2279831;40;3612;-89
2022/04/03 15:48:42;580163.00;1.93;999.98;26753.00;0.09;46.96;;;;;10.30;1.00;;;;;;2276051;61;1241;-85
2022/04/03 15:51:09;1550.00;0.01;3.31;0.00;0.00;0.62;;;;;10.10;1.00;;;;;;2275933;61;1677;-87
2022/04/03 15:53:37;178539.00;0.60;308.97;21404.00;0.07;37.70;;;;;10.50;1.00;;;;;;2276094;61;1043;-88
2022/04/03 15:56:05;62498.00;0.21;108.79;0.00;0.00;0.62;;;;;10.30;1.00;;;;;;2276075;61;1112;-90
2022/04/03 15:58:32;125341.00;0.42;217.29;3247.00;0.01;6.25;;;;;10.50;1.00;;;;;;2276097;61;1421;-87
2022/04/03 16:00:59;120717.00;0.40;209.32;0.00;0.00;0.62;;;;;10.70;1.00;;;;;;2276189;61;1910;-88
2022/04/03 16:03:28;138415.00;0.46;239.84;0.00;0.00;0.62;;;;;10.90;1.00;;;;;;2276178;61;1150;-88
2022/04/03 16:05:55;170212.00;0.57;294.63;16975.00;0.06;30.03;;;;;10.60;1.00;;;;;;2276117;61;1634;-87
2022/04/03 16:08:22;526625.00;1.76;907.68;80463.00;0.27;139.84;;;;;10.60;1.00;;;;;;2276027;61;1428;-88
2022/04/03 16:10:49;768186.00;2.56;1325.70;25607.00;0.09;44.98;;;;;10.70;1.00;;;;;;2276171;61;2176;-86
2022/04/03 16:13:16;2019472.00;6.73;3664.38;81024.00;0.27;140.81;;;;;10.90;1.00;;;;;;2276147;61;1766;-87
2022/04/03 16:15:43;1293146.00;4.31;2259.57;167294.00;0.56;289.61;;;;;11.10;1.00;;;;;;2276160;61;1015;-87
2022/04/03 16:18:10;426947.00;1.42;736.14;83236.00;0.28;144.63;;;;;10.90;1.00;;;;;;2275996;61;1714;-87
2022/04/03 16:20:38;9569.00;0.03;17.20;0.00;0.00;0.62;;;;;11.10;1.00;;;;;;2276223;61;1094;-89
2022/04/03 16:23:06;233520.00;0.78;403.60;22805.00;0.08;40.13;;;;;10.90;1.00;;;;;;2276086;61;1997;-89
2022/04/03 16:25:33;148548.00;0.50;257.31;10107.00;0.03;18.13;;;;;10.50;1.00;;;;;;2275852;61;1456;-89
2022/04/03 16:28:00;271171.00;0.90;468.36;0.00;0.00;0.62;;;;;10.10;1.00;;;;;;2275799;61;1412;-88
2022/04/03 16:30:27;15693.00;0.05;27.81;0.00;0.00;0.62;;;;;10.50;1.00;;;;;;2276199;61;2008;-88
2022/04/03 16:32:54;43041.00;0.14;75.15;0.00;0.00;0.62;;;;;10.50;1.00;;;;;;2276105;61;2087;-87
2022/04/03 16:35:23;171773.00;0.57;297.32;0.00;0.00;0.62;;;;;10.90;1.00;;;;;;2275904;61;1049;-86
2022/04/03 16:37:52;61770.00;0.21;107.54;0.00;0.00;0.62;;;;;10.90;1.00;;;;;;2278997;40;3687;-87
2022/04/03 16:40:19;42153.00;0.14;73.61;0.00;0.00;0.62;;;;;11.10;1.00;;;;;;2276762;61;1106;-87
2022/04/03 16:42:46;45384.00;0.15;79.20;0.00;0.00;0.62;;;;;11.10;1.00;;;;;;2300289;40;3610;-89
2022/04/03 16:45:16;221.00;0.00;1.00;0.00;0.00;0.62;;;;;10.70;1.00;;;;;;2276808;61;1028;-89
2022/04/03 16:47:43;94868.00;0.32;164.71;19622.00;0.07;34.62;;;;;10.70;1.00;;;;;;2276713;61;1595;-88
2022/04/03 16:50:11;34587.00;0.12;60.52;0.00;0.00;0.62;;;;;10.40;1.00;;;;;;2276692;61;1129;-88
2022/04/03 16:52:39;40195.00;0.13;70.23;0.00;0.00;0.62;;;;;10.90;1.00;;;;;;2276747;61;1061;-88
2022/04/03 16:55:09;130497.00;0.43;226.19;10106.00;0.03;18.13;;;;;11.30;1.00;;;;;;2276819;61;1423;-88
2022/04/03 16:57:36;449358.00;1.50;774.68;28342.00;0.09;49.71;;;;;11.30;1.00;;;;;;2276734;61;1565;-88
2022/04/03 17:00:05;1166685.00;3.89;2030.10;151461.00;0.50;262.33;;;;;11.30;1.00;;;;;;2276692;61;1125;-88
2022/04/03 17:02:33;1434547.00;4.78;2520.55;90483.00;0.30;157.14;;;;;11.10;1.00;;;;;;2276583;61;1911;-89
2022/04/03 17:05:01;1440785.00;4.80;2532.18;86837.00;0.29;150.85;;;;;10.50;1.00;;;;;;2278461;55;3755;-88
2022/04/03 17:10:02;626402.00;2.09;1079.83;89212.00;0.30;154.95;;;;;10.80;1.00;;;;;;2274270;60;1332;-89
2022/04/03 17:12:30;341765.00;1.14;589.71;96393.00;0.32;167.35;;;;;10.80;1.00;;;;;;2272499;60;1030;-87
2022/04/03 17:14:57;207855.00;0.69;359.44;85485.00;0.28;148.51;;;;;10.50;1.00;;;;;;2277839;39;3661;-87
2022/04/03 17:17:24;336975.00;1.12;581.47;91262.00;0.30;158.49;;;;;10.40;1.00;;;;;;2276437;61;1661;-88
2022/04/03 17:19:52;243750.00;0.81;421.20;101927.00;0.34;176.90;;;;;9.90;1.00;;;;;;2276505;61;922;-87
2022/04/03 17:24:48;279324.00;0.93;482.38;31998.00;0.11;56.04;;;;;9.80;1.00;;;;;;2273873;61;1313;-90
2022/04/03 17:27:16;106443.00;0.35;184.69;0.00;0.00;0.62;;;;;10.10;1.00;;;;;;2272415;60;1352;-89
2022/04/03 17:29:44;9763.00;0.03;17.54;0.00;0.00;0.62;;;;;10.20;1.00;;;;;;2272580;60;1032;-87
2022/04/03 17:34:41;116120.00;0.39;201.39;0.00;0.00;0.62;;;;;9.80;1.00;;;;;;2274054;61;1396;-88
2022/04/03 17:37:08;136687.00;0.46;236.86;0.00;0.00;0.62;;;;;9.80;1.00;;;;;;2272359;60;1371;-89
2022/04/03 17:39:35;130459.00;0.43;226.12;0.00;0.00;0.62;;;;;9.90;1.00;;;;;;2272485;60;1628;-88
2022/04/03 17:42:04;256001.00;0.85;442.27;0.00;0.00;0.62;;;;;10.20;1.00;;;;;;2272411;60;1903;-88
2022/04/03 17:54:46;45112.00;0.15;78.73;0.00;0.00;0.62;;;;;8.90;1.00;;;;;;2274011;61;1289;-89
2022/04/03 17:57:13;117394.00;0.39;203.59;0.00;0.00;0.62;;;;;9.20;1.00;;;;;;2272478;61;1350;-89
2022/04/03 17:59:40;98910.00;0.33;171.69;0.00;0.00;0.62;;;;;9.00;1.00;;;;;;2272458;61;938;-90
2022/04/03 18:02:08;49456.00;0.16;86.25;0.00;0.00;0.62;;;;;9.10;1.00;;;;;;2272002;61;1993;-87
2022/04/03 18:07:07;458825.00;1.53;790.96;0.00;0.00;0.62;;;;;8.60;1.00;;;;;;2274114;61;1336;-88
2022/04/03 18:09:34;58459.00;0.19;101.81;0.00;0.00;0.62;;;;;8.50;1.00;;;;;;2280290;40;3601;-87
2022/04/03 18:14:32;168349.00;0.56;291.42;0.00;0.00;0.62;;;;;8.30;1.00;;;;;;2290009;39;3482;-87
2022/04/03 18:35:04;500250.00;1.67;862.25;0.00;0.00;0.62;;;;;10.70;1.00;;;;;;2473991;40;3442;31
2022/04/03 19:38:06;639872.00;2.13;1103.12;89844.00;0.30;156.04;;;;;9.40;1.00;;;;;;2432515;40;3575;-86
2022/04/03 19:40:33;844613.00;2.82;1459.04;93448.00;0.31;162.26;;;;;9.90;1.00;;;;;;2270170;61;1358;-89
2022/04/03 19:43:01;350416.00;1.17;604.58;0.00;0.00;0.62;;;;;10.40;1.00;;;;;;2268680;61;1995;-90
2022/04/03 22:16:19;899703.00;3.00;1555.60;80664.00;0.27;140.18;;;;;10.70;1.00;;;;;;2274485;61;1352;-89
2022/04/03 22:33:58;498160.00;1.66;858.66;0.00;0.00;0.62;;;;;10.80;1.00;;;;;;2129743;39;3400;-88
2022/04/03 23:01:25;657488.00;2.19;1133.59;29652.00;0.10;51.98;;;;;10.30;1.00;;;;;;2274501;61;1013;-90
2022/04/03 23:31:20;353556.00;1.18;609.97;0.00;0.00;0.62;;;;;8.40;1.00;;;;;;2270350;61;1003;-88
2022/04/03 23:33:47;484448.00;1.61;835.05;0.00;0.00;0.62;;;;;8.40;1.00;;;;;;2268755;61;1013;-88
2022/04/03 23:36:14;44435.00;0.15;77.56;0.00;0.00;0.62;;;;;8.30;1.00;;;;;;2268770;61;1583;-87
